Time;durP1;ratioP1;P1;durP2;ratioP2;P2;SDS_P1;SDS_P2;PMS_P1;PMS_P2;Temp;Humidity;BMP_temperature;BMP_pressure;BME280_temperature;BME280_humidity;BME280_pressure;Samples;Min_cycle;Max_cycle;Signal;HPM_P1;HPM_P2
2023/04/19 00:01:56;;;;;;;10.83;6.87;;;;;;;;;;5045031;28;20790;-91
2023/04/19 00:04:22;;;;;;;7.47;6.63;;;;;;;;;;5060639;28;20470;-91
2023/04/19 00:06:50;;;;;;;8.23;7.33;;;;;;;;;;5044975;28;20400;-91
2023/04/19 00:09:16;;;;;;;7.13;5.40;;;;;;;;;;5079187;28;20412;-91
2023/04/19 00:11:42;;;;;;;9.07;5.60;;;;;;;;;;5061480;28;20419;-91
2023/04/19 00:14:07;;;;;;;6.30;5.70;;;;;;;;;;5061800;28;20411;-91
2023/04/19 00:16:34;;;;;;;6.90;5.50;;;;;;;;;;5061848;28;20471;-92
2023/04/19 00:19:00;;;;;;;8.27;6.90;;;;;;;;;;5061662;28;20407;-91
2023/04/19 00:21:26;;;;;;;9.33;5.80;;;;;;;;;;5061561;28;20411;-92
2023/04/19 00:23:52;;;;;;;6.47;5.70;;;;;;;;;;5064798;28;20407;-91
2023/04/19 00:26:19;;;;;;;7.97;5.73;;;;;;;;;;5051080;28;20522;-91
2023/04/19 00:28:45;;;;;;;7.00;5.63;;;;;;;;;;5079460;28;20435;-91
2023/04/19 00:31:11;;;;;;;8.30;6.77;;;;;;;;;;5078820;28;20518;-91
2023/04/19 00:33:37;;;;;;;8.80;6.43;;;;;;;;;;5061828;28;20422;-91
2023/04/19 00:36:03;;;;;;;9.83;6.67;;;;;;;;;;5061973;28;20486;-91
2023/04/19 00:38:29;;;;;;;7.07;5.87;;;;;;;;;;5045371;28;20792;-91
2023/04/19 00:40:55;;;;;;;7.05;6.35;;;;;;;;;;5078189;28;20776;-89
2023/04/19 00:43:21;;;;;;;8.50;6.70;;;;;;;;;;5060447;28;20657;-91
2023/04/19 00:45:47;;;;;;;6.80;6.10;;;;;;;;;;5060204;28;20426;-91
2023/04/19 00:48:14;;;;;;;10.50;7.18;;;;;;;;;;5043443;28;20529;-91
2023/04/19 00:50:40;;;;;;;12.47;9.97;;;;;;;;;;5062046;28;20239;-91
2023/04/19 00:53:07;;;;;;;12.50;11.20;;;;;;;;;;5060875;28;20403;-90
2023/04/19 00:55:33;;;;;;;14.77;12.63;;;;;;;;;;5077953;28;20403;-91
2023/04/19 00:57:59;;;;;;;15.00;13.43;;;;;;;;;;5043402;28;20419;-91
2023/04/19 01:00:25;;;;;;;14.10;12.40;;;;;;;;;;5059969;28;20419;-91
2023/04/19 01:02:52;;;;;;;15.20;12.53;;;;;;;;;;5044511;28;20434;-91
2023/04/19 01:05:18;;;;;;;15.03;13.43;;;;;;;;;;5060243;28;20785;-90
2023/04/19 01:07:44;;;;;;;13.40;11.87;;;;;;;;;;5078175;28;20407;-90
2023/04/19 01:10:11;;;;;;;14.17;12.37;;;;;;;;;;5060188;28;20507;-91
2023/04/19 01:12:37;;;;;;;14.93;12.95;;;;;;;;;;5043634;28;20470;-91
2023/04/19 01:15:03;;;;;;;14.67;12.33;;;;;;;;;;5078608;28;20535;-91
2023/04/19 01:17:31;;;;;;;14.23;12.70;;;;;;;;;;5047653;28;21097;-91
2023/04/19 01:20:02;;;;;;;15.67;12.20;;;;;;;;;;5064923;28;20514;-89
2023/04/19 01:22:29;;;;;;;14.63;13.10;;;;;;;;;;5051157;28;20474;-91
2023/04/19 01:24:56;;;;;;;14.40;12.85;;;;;;;;;;5082785;28;20400;-91
2023/04/19 01:27:22;;;;;;;14.43;12.90;;;;;;;;;;5043952;28;20248;-91
2023/04/19 01:29:48;;;;;;;14.18;12.40;;;;;;;;;;5043649;28;20212;-91
2023/04/19 01:32:16;;;;;;;16.45;12.13;;;;;;;;;;5059272;28;20181;-90
2023/04/19 01:34:42;;;;;;;16.08;13.35;;;;;;;;;;5059075;28;20175;-91
2023/04/19 01:37:08;;;;;;;14.90;12.18;;;;;;;;;;5058525;28;20197;-91
2023/04/19 01:39:34;;;;;;;18.58;13.13;;;;;;;;;;5076689;28;20192;-91
2023/04/19 01:42:01;;;;;;;15.07;12.20;;;;;;;;;;5058127;28;20184;-90
2023/04/19 01:44:27;;;;;;;15.48;12.00;;;;;;;;;;5058198;28;20636;-91
2023/04/19 01:46:54;;;;;;;14.85;12.30;;;;;;;;;;5058120;28;20191;-90
2023/04/19 01:49:20;;;;;;;13.95;12.43;;;;;;;;;;5079491;28;20623;-91
2023/04/19 01:51:46;;;;;;;16.53;12.40;;;;;;;;;;5061286;28;20188;-91
2023/04/19 01:54:12;;;;;;;14.90;12.40;;;;;;;;;;5060762;28;20774;-91
2023/04/19 01:56:38;;;;;;;16.70;13.63;;;;;;;;;;5077649;28;20306;-90
2023/04/19 01:59:04;;;;;;;15.00;12.87;;;;;;;;;;5077361;28;20414;-91
2023/04/19 02:01:31;;;;;;;15.00;12.23;;;;;;;;;;5077607;28;20398;-90
2023/04/19 02:03:57;;;;;;;18.23;13.32;;;;;;;;;;5077910;28;20222;-90
2023/04/19 02:06:23;;;;;;;14.48;11.68;;;;;;;;;;5076861;28;20270;-91
2023/04/19 02:08:49;;;;;;;14.33;12.40;;;;;;;;;;5081473;28;20215;-91
2023/04/19 02:11:15;;;;;;;19.50;12.27;;;;;;;;;;5081304;28;20855;-90
2023/04/19 02:13:41;;;;;;;14.77;12.15;;;;;;;;;;5100100;28;20386;-91
2023/04/19 02:16:07;;;;;;;22.58;13.43;;;;;;;;;;5082232;28;20699;-90
2023/04/19 02:18:38;;;;;;;15.77;12.65;;;;;;;;;;5083884;28;20287;-91
2023/04/19 02:21:05;;;;;;;17.05;14.10;;;;;;;;;;5083271;28;20180;-90
2023/04/19 02:23:31;;;;;;;14.98;12.73;;;;;;;;;;5081645;28;20226;-91
2023/04/19 02:25:57;;;;;;;17.38;13.73;;;;;;;;;;5099715;28;20172;-90
2023/04/19 02:28:23;;;;;;;18.08;14.05;;;;;;;;;;5081661;28;20188;-91
2023/04/19 02:30:49;;;;;;;16.70;13.10;;;;;;;;;;5099578;28;20676;-91
2023/04/19 02:33:15;;;;;;;13.93;12.00;;;;;;;;;;5069792;28;20417;-90
2023/04/19 02:35:41;;;;;;;18.27;14.32;;;;;;;;;;5076276;28;20178;-89
2023/04/19 02:38:07;;;;;;;17.40;14.27;;;;;;;;;;5088403;28;20726;-90
2023/04/19 02:40:33;;;;;;;20.67;15.07;;;;;;;;;;5102678;28;20176;-90
2023/04/19 02:42:59;;;;;;;18.05;14.38;;;;;;;;;;5084394;28;20191;-90
2023/04/19 02:45:25;;;;;;;19.03;14.40;;;;;;;;;;5083598;28;20369;-91
2023/04/19 02:47:51;;;;;;;16.88;14.27;;;;;;;;;;5066860;28;20425;-91
2023/04/19 02:50:17;;;;;;;18.00;15.70;;;;;;;;;;5065243;28;20236;-91
2023/04/19 02:52:43;;;;;;;16.73;14.80;;;;;;;;;;5081883;28;20402;-91
2023/04/19 02:55:09;;;;;;;19.40;15.20;;;;;;;;;;5098880;28;20192;-90
2023/04/19 02:57:35;;;;;;;19.98;16.40;;;;;;;;;;5064417;28;20480;-91
2023/04/19 03:00:01;;;;;;;23.00;16.07;;;;;;;;;;5082280;28;20168;-90
2023/04/19 03:02:27;;;;;;;18.42;15.60;;;;;;;;;;5082216;28;20412;-91
2023/04/19 03:04:54;;;;;;;17.33;15.30;;;;;;;;;;5082291;28;20276;-90
2023/04/19 03:07:20;;;;;;;20.05;15.68;;;;;;;;;;5082983;28;20187;-91
2023/04/19 03:09:46;;;;;;;19.02;15.75;;;;;;;;;;5066354;28;20191;-90
2023/04/19 03:12:12;;;;;;;21.53;17.53;;;;;;;;;;5066653;28;20177;-90
2023/04/19 03:14:38;;;;;;;17.37;15.37;;;;;;;;;;5082309;28;20421;-89
2023/04/19 03:17:04;;;;;;;19.77;15.32;;;;;;;;;;5104474;28;20457;-86
2023/04/19 03:19:30;;;;;;;21.20;15.75;;;;;;;;;;5099696;28;20172;-90
2023/04/19 03:21:56;;;;;;;26.80;16.17;;;;;;;;;;5101218;28;20184;-91
2023/04/19 03:24:29;;;;;;;19.48;15.00;;;;;;;;;;5100251;28;20176;-90
2023/04/19 03:26:56;;;;;;;20.48;16.55;;;;;;;;;;5101876;28;20179;-91
2023/04/19 03:29:22;;;;;;;18.80;15.60;;;;;;;;;;5090460;28;20176;-91
2023/04/19 03:31:49;;;;;;;24.20;15.95;;;;;;;;;;5083180;28;20180;-90
2023/04/19 03:34:15;;;;;;;19.63;15.60;;;;;;;;;;5101201;28;20168;-90
2023/04/19 03:36:41;;;;;;;20.90;15.43;;;;;;;;;;5102641;28;20203;-91
2023/04/19 03:39:07;;;;;;;17.48;14.52;;;;;;;;;;5101510;28;20203;-90
2023/04/19 03:41:33;;;;;;;21.20;14.27;;;;;;;;;;5066961;28;20207;-90
2023/04/19 03:43:59;;;;;;;17.27;14.77;;;;;;;;;;5083694;28;20509;-92
2023/04/19 03:46:25;;;;;;;18.25;13.40;;;;;;;;;;5083413;28;20198;-91
2023/04/19 03:48:52;;;;;;;17.88;13.73;;;;;;;;;;5084960;28;20176;-90
2023/04/19 03:51:18;;;;;;;17.80;15.88;;;;;;;;;;5082838;28;20180;-91
2023/04/19 03:53:44;;;;;;;17.38;13.40;;;;;;;;;;5083317;28;20176;-91
2023/04/19 03:56:10;;;;;;;17.05;14.68;;;;;;;;;;5083215;28;20231;-91
2023/04/19 03:58:36;;;;;;;14.70;12.70;;;;;;;;;;5085359;28;20180;-91
2023/04/19 04:01:02;;;;;;;16.13;13.40;;;;;;;;;;5067880;28;20768;-91
2023/04/19 04:03:28;;;;;;;17.17;12.83;;;;;;;;;;5102744;28;20171;-91
2023/04/19 04:05:54;;;;;;;17.15;14.77;;;;;;;;;;5085264;28;20409;-90
2023/04/19 04:08:20;;;;;;;15.95;13.32;;;;;;;;;;5098449;28;20185;-91
2023/04/19 04:10:46;;;;;;;18.35;14.82;;;;;;;;;;5079751;28;20192;-91
2023/04/19 04:13:12;;;;;;;16.60;12.50;;;;;;;;;;5080578;28;20175;-91
2023/04/19 04:15:38;;;;;;;25.50;14.70;;;;;;;;;;5081286;28;20636;-92
2023/04/19 04:18:05;;;;;;;23.77;13.50;;;;;;;;;;5099963;28;20913;-90
2023/04/19 04:20:31;;;;;;;20.52;14.52;;;;;;;;;;5064139;28;20188;-91
2023/04/19 04:22:57;;;;;;;19.52;14.23;;;;;;;;;;5097938;28;20172;-90
2023/04/19 04:25:24;;;;;;;20.55;14.70;;;;;;;;;;5099987;28;20183;-91
2023/04/19 04:27:51;;;;;;;16.45;13.55;;;;;;;;;;5081600;28;20222;-90
2023/04/19 04:30:17;;;;;;;17.15;13.73;;;;;;;;;;5081468;28;20168;-91
2023/04/19 04:32:43;;;;;;;14.88;13.35;;;;;;;;;;5081166;28;20172;-90
2023/04/19 04:35:10;;;;;;;17.75;15.55;;;;;;;;;;5098620;28;20200;-90
2023/04/19 04:37:36;;;;;;;19.10;14.13;;;;;;;;;;5082646;28;20595;-91
2023/04/19 04:40:04;;;;;;;16.80;14.10;;;;;;;;;;5100922;28;20173;-91
2023/04/19 04:42:31;;;;;;;18.92;15.13;;;;;;;;;;5083903;28;20180;-91
2023/04/19 04:44:57;;;;;;;17.88;13.85;;;;;;;;;;5101949;28;20199;-91
2023/04/19 04:47:24;;;;;;;16.17;14.13;;;;;;;;;;5084001;28;20185;-91
2023/04/19 04:49:51;;;;;;;20.23;13.75;;;;;;;;;;5083152;28;20256;-91
2023/04/19 04:52:17;;;;;;;17.45;14.00;;;;;;;;;;5099742;28;20168;-91
2023/04/19 04:54:43;;;;;;;22.20;13.15;;;;;;;;;;5065246;28;20726;-91
2023/04/19 04:57:09;;;;;;;16.83;12.40;;;;;;;;;;5081090;28;20235;-86
2023/04/19 04:59:36;;;;;;;18.92;14.63;;;;;;;;;;5081039;28;20887;-92
2023/04/19 05:02:02;;;;;;;21.13;14.50;;;;;;;;;;5081073;28;20187;-91
2023/04/19 05:04:28;;;;;;;15.98;13.10;;;;;;;;;;5084319;28;20226;-92
2023/04/19 05:06:54;;;;;;;15.70;12.77;;;;;;;;;;5099294;28;20188;-91
2023/04/19 05:09:20;;;;;;;17.47;14.20;;;;;;;;;;5066087;28;20784;-91
2023/04/19 05:11:46;;;;;;;16.50;14.15;;;;;;;;;;5079882;28;20426;-79
2023/04/19 05:14:12;;;;;;;24.27;14.93;;;;;;;;;;5095521;28;20178;-84
2023/04/19 05:16:39;;;;;;;16.88;13.40;;;;;;;;;;5077483;28;20204;-83
2023/04/19 05:19:05;;;;;;;18.98;13.50;;;;;;;;;;5095581;28;20231;-83
2023/04/19 05:21:33;;;;;;;14.20;12.80;;;;;;;;;;5095363;28;20199;-83
2023/04/19 05:23:59;;;;;;;16.83;14.05;;;;;;;;;;5095404;28;20406;-83
2023/04/19 05:26:25;;;;;;;18.60;12.68;;;;;;;;;;5061365;28;20547;-83
2023/04/19 05:28:51;;;;;;;16.77;12.93;;;;;;;;;;5061420;28;20180;-83
2023/04/19 05:31:17;;;;;;;18.55;14.32;;;;;;;;;;5076968;28;20429;-84
2023/04/19 05:33:43;;;;;;;16.38;11.68;;;;;;;;;;5077442;28;20233;-83
2023/04/19 05:36:09;;;;;;;18.17;13.70;;;;;;;;;;5077533;28;20654;-83
2023/04/19 05:38:35;;;;;;;16.45;14.00;;;;;;;;;;5076972;28;20406;-83
2023/04/19 05:41:02;;;;;;;15.80;12.30;;;;;;;;;;5077052;28;20540;-83
2023/04/19 05:43:28;;;;;;;19.95;14.20;;;;;;;;;;5077211;28;20414;-83
2023/04/19 05:45:54;;;;;;;19.25;13.40;;;;;;;;;;5084911;28;20179;-83
2023/04/19 05:48:20;;;;;;;15.32;13.73;;;;;;;;;;5096828;28;20233;-83
2023/04/19 05:50:46;;;;;;;15.65;13.45;;;;;;;;;;5096623;28;20559;-83
2023/04/19 05:53:12;;;;;;;18.77;14.02;;;;;;;;;;5061707;28;20182;-88
2023/04/19 05:55:38;;;;;;;15.70;12.70;;;;;;;;;;5096174;28;20172;-83
2023/04/19 05:58:04;;;;;;;19.00;13.80;;;;;;;;;;5078025;28;20183;-83
2023/04/19 06:00:31;;;;;;;19.85;13.27;;;;;;;;;;5073654;28;20447;-83
2023/04/19 06:02:57;;;;;;;14.70;12.27;;;;;;;;;;5041028;28;20187;-83
2023/04/19 06:05:23;;;;;;;14.18;12.50;;;;;;;;;;5040948;28;20263;-83
2023/04/19 06:07:49;;;;;;;17.13;13.77;;;;;;;;;;5057616;28;20667;-83
2023/04/19 06:10:15;;;;;;;17.25;12.85;;;;;;;;;;5057312;28;20591;-84
2023/04/19 06:12:41;;;;;;;17.70;13.85;;;;;;;;;;5074929;28;20633;-83
2023/04/19 06:15:07;;;;;;;15.73;12.50;;;;;;;;;;5040445;28;20185;-83
2023/04/19 06:17:33;;;;;;;15.30;12.55;;;;;;;;;;5056753;28;21076;-82
2023/04/19 06:19:59;;;;;;;16.30;12.50;;;;;;;;;;5057020;28;20188;-82
2023/04/19 06:22:25;;;;;;;16.05;11.93;;;;;;;;;;5057351;28;20407;-83
2023/04/19 06:24:51;;;;;;;15.10;10.60;;;;;;;;;;5075116;28;20188;-83
2023/04/19 06:27:17;;;;;;;13.10;9.93;;;;;;;;;;5056826;28;20180;-83
2023/04/19 06:29:43;;;;;;;12.70;10.33;;;;;;;;;;5057112;28;20416;-83
2023/04/19 06:32:10;;;;;;;13.07;10.05;;;;;;;;;;5056643;28;20557;-82
2023/04/19 06:34:36;;;;;;;12.65;9.65;;;;;;;;;;5056810;28;20644;-84
2023/04/19 06:37:02;;;;;;;12.93;8.90;;;;;;;;;;5074716;28;20205;-84
2023/04/19 06:39:28;;;;;;;12.15;9.32;;;;;;;;;;5040025;28;20404;-86
2023/04/19 06:41:54;;;;;;;11.63;9.20;;;;;;;;;;5056637;28;20247;-84
2023/04/19 06:44:20;;;;;;;11.38;8.60;;;;;;;;;;5040164;28;20407;-85
2023/04/19 06:46:46;;;;;;;12.93;7.53;;;;;;;;;;5056691;28;20196;-84
2023/04/19 06:49:12;;;;;;;9.27;8.10;;;;;;;;;;5055887;28;20305;-84
2023/04/19 06:51:39;;;;;;;10.50;8.20;;;;;;;;;;5056905;28;20165;-84
2023/04/19 06:54:05;;;;;;;11.07;8.07;;;;;;;;;;5059130;28;20915;-84
2023/04/19 06:56:44;;;;;;;10.55;7.97;;;;;;;;;;5060431;28;20200;-85
2023/04/19 06:59:10;;;;;;;13.10;7.70;;;;;;;;;;5060122;28;20179;-85
2023/04/19 07:01:36;;;;;;;8.40;7.05;;;;;;;;;;5077931;28;20169;-84
2023/04/19 07:04:02;;;;;;;7.83;6.90;;;;;;;;;;5060205;28;20623;-84
2023/04/19 07:06:28;;;;;;;7.07;6.37;;;;;;;;;;5077836;28;20411;-84
2023/04/19 07:08:54;;;;;;;7.70;6.63;;;;;;;;;;5043534;28;20935;-84
2023/04/19 07:11:20;;;;;;;7.45;6.45;;;;;;;;;;5043287;28;20184;-86
2023/04/19 07:13:46;;;;;;;8.60;6.70;;;;;;;;;;5043002;28;20227;-85
2023/04/19 07:16:13;;;;;;;10.03;5.70;;;;;;;;;;5043204;28;20974;-84
2023/04/19 07:18:39;;;;;;;6.83;5.93;;;;;;;;;;5059955;28;20407;-83
2023/04/19 07:21:05;;;;;;;6.90;6.20;;;;;;;;;;5059544;28;20824;-84
2023/04/19 07:23:31;;;;;;;6.63;5.77;;;;;;;;;;5059356;28;20415;-84
2023/04/19 07:25:57;;;;;;;8.33;5.87;;;;;;;;;;5059669;28;20950;-84
2023/04/19 07:28:23;;;;;;;12.03;6.90;;;;;;;;;;5059682;28;20404;-84
2023/04/19 07:30:49;;;;;;;7.50;5.73;;;;;;;;;;5043036;28;20422;-84
2023/04/19 07:33:15;;;;;;;9.03;5.97;;;;;;;;;;5077656;28;20415;-83
2023/04/19 07:35:41;;;;;;;6.47;5.20;;;;;;;;;;5076744;28;20395;-84
2023/04/19 07:38:07;;;;;;;8.40;5.57;;;;;;;;;;5058833;28;20423;-84
2023/04/19 07:40:33;;;;;;;10.53;5.47;;;;;;;;;;5076855;28;20430;-84
2023/04/19 07:42:59;;;;;;;6.53;5.47;;;;;;;;;;5077586;28;20461;-84
2023/04/19 07:45:25;;;;;;;6.60;5.10;;;;;;;;;;5059324;28;20791;-84
2023/04/19 07:47:51;;;;;;;7.23;5.07;;;;;;;;;;5042176;28;20522;-84
2023/04/19 07:50:17;;;;;;;6.67;6.07;;;;;;;;;;5042632;28;20471;-84
2023/04/19 07:52:43;;;;;;;7.93;5.47;;;;;;;;;;5042815;28;20423;-84
2023/04/19 07:55:10;;;;;;;6.60;5.80;;;;;;;;;;5059008;28;20769;-84
2023/04/19 07:57:36;;;;;;;11.50;6.17;;;;;;;;;;5076845;28;20551;-84
2023/04/19 08:00:03;;;;;;;7.03;5.40;;;;;;;;;;5042581;28;20423;-84
2023/04/19 08:02:29;;;;;;;6.97;6.27;;;;;;;;;;5058508;28;20415;-85
2023/04/19 08:04:56;;;;;;;6.43;5.10;;;;;;;;;;5056706;28;20429;-84
2023/04/19 08:07:22;;;;;;;5.67;4.67;;;;;;;;;;5058154;28;20486;-85
2023/04/19 08:09:49;;;;;;;7.17;5.80;;;;;;;;;;5058340;28;20525;-84
2023/04/19 08:12:15;;;;;;;7.90;5.83;;;;;;;;;;5042628;28;20510;-84
2023/04/19 08:14:41;;;;;;;7.20;5.77;;;;;;;;;;5057926;28;20415;-84
2023/04/19 08:17:07;;;;;;;5.70;5.17;;;;;;;;;;5076364;28;20459;-83
2023/04/19 08:19:40;;;;;;;6.93;5.73;;;;;;;;;;5076808;28;20399;-83
2023/04/19 08:22:07;;;;;;;7.50;5.53;;;;;;;;;;5059916;28;20396;-84
2023/04/19 08:24:33;;;;;;;5.30;4.73;;;;;;;;;;5058127;28;20411;-84
2023/04/19 08:26:59;;;;;;;6.17;5.57;;;;;;;;;;5058831;28;20498;-84
2023/04/19 08:29:27;;;;;;;6.30;4.40;;;;;;;;;;5041862;28;20474;-83
2023/04/19 08:31:53;;;;;;;5.67;5.07;;;;;;;;;;5042137;28;20885;-84
2023/04/19 08:34:19;;;;;;;6.20;4.77;;;;;;;;;;5041861;28;20427;-84
2023/04/19 08:36:45;;;;;;;5.73;5.13;;;;;;;;;;5058159;28;20893;-84
2023/04/19 08:39:12;;;;;;;5.13;4.60;;;;;;;;;;5041622;28;20425;-83
2023/04/19 08:41:38;;;;;;;9.13;5.70;;;;;;;;;;5076162;28;20834;-85
2023/04/19 08:44:05;;;;;;;5.63;5.13;;;;;;;;;;5075605;28;20930;-84
2023/04/19 08:46:31;;;;;;;6.30;5.37;;;;;;;;;;5058257;28;20408;-85
2023/04/19 08:48:59;;;;;;;5.53;4.43;;;;;;;;;;5058027;28;20557;-85
2023/04/19 08:51:26;;;;;;;5.77;4.67;;;;;;;;;;5058033;28;20418;-86
2023/04/19 08:53:55;;;;;;;10.90;6.73;;;;;;;;;;5076406;28;20398;-85
2023/04/19 08:56:21;;;;;;;5.47;4.97;;;;;;;;;;5083870;28;20441;-85
2023/04/19 08:58:47;;;;;;;5.23;4.70;;;;;;;;;;5077145;28;20461;-84
2023/04/19 09:01:13;;;;;;;9.47;5.97;;;;;;;;;;5042892;28;20397;-84
2023/04/19 09:03:44;;;;;;;6.00;5.40;;;;;;;;;;5058539;28;20425;-85
2023/04/19 09:06:11;;;;;;;5.80;5.30;;;;;;;;;;5041643;28;20476;-84
2023/04/19 09:08:37;;;;;;;6.00;5.20;;;;;;;;;;5058892;28;20416;-85
2023/04/19 09:11:03;;;;;;;7.93;5.80;;;;;;;;;;5076186;28;20401;-85
2023/04/19 09:13:29;;;;;;;6.70;5.00;;;;;;;;;;5075005;28;20389;-85
2023/04/19 09:16:03;;;;;;;6.10;5.50;;;;;;;;;;5041319;28;20434;-85
2023/04/19 09:18:29;;;;;;;6.60;5.70;;;;;;;;;;5075862;28;20414;-85
2023/04/19 09:20:59;;;;;;;5.20;4.70;;;;;;;;;;5075072;28;20408;-85
2023/04/19 09:23:26;;;;;;;6.13;5.10;;;;;;;;;;5057446;28;20437;-88
2023/04/19 09:25:52;;;;;;;5.33;4.83;;;;;;;;;;5057302;28;20446;-85
2023/04/19 09:28:18;;;;;;;6.27;4.57;;;;;;;;;;5075756;28;20411;-84
2023/04/19 09:30:45;;;;;;;3.53;3.13;;;;;;;;;;5057167;28;20419;-84
2023/04/19 09:33:11;;;;;;;7.00;5.00;;;;;;;;;;5075603;28;20536;-84
2023/04/19 09:35:41;;;;;;;7.60;5.53;;;;;;;;;;5040299;28;20400;-84
2023/04/19 09:38:07;;;;;;;5.20;4.57;;;;;;;;;;5056908;28;20459;-86
2023/04/19 09:40:33;;;;;;;4.60;4.20;;;;;;;;;;5074851;28;20390;-85
2023/04/19 09:43:00;;;;;;;7.77;4.40;;;;;;;;;;5074771;28;20725;-80
2023/04/19 09:45:39;;;;;;;6.43;4.20;;;;;;;;;;5056755;28;20876;-86
2023/04/19 09:48:06;;;;;;;6.33;4.00;;;;;;;;;;5056598;28;20442;-85
2023/04/19 09:50:32;;;;;;;8.80;4.00;;;;;;;;;;5074454;28;20461;-86
2023/04/19 09:52:59;;;;;;;8.20;4.37;;;;;;;;;;5059172;28;20415;-86
2023/04/19 09:55:25;;;;;;;4.53;3.60;;;;;;;;;;5067234;28;20457;-86
2023/04/19 09:57:52;;;;;;;4.80;4.30;;;;;;;;;;5058701;28;20507;-85
2023/04/19 10:00:20;;;;;;;5.07;4.47;;;;;;;;;;5082475;28;20413;-86
2023/04/19 10:02:54;;;;;;;7.00;4.03;;;;;;;;;;5056606;28;20404;-85
2023/04/19 10:05:24;;;;;;;4.60;3.97;;;;;;;;;;5072677;28;20837;-85
2023/04/19 10:07:51;;;;;;;6.37;3.90;;;;;;;;;;5076090;28;20964;-85
2023/04/19 10:10:17;;;;;;;4.50;3.53;;;;;;;;;;5076249;28;20575;-85
2023/04/19 10:12:46;;;;;;;4.67;3.80;;;;;;;;;;5059809;28;20547;-86
2023/04/19 10:15:14;;;;;;;5.17;4.67;;;;;;;;;;5094414;28;20892;-86
2023/04/19 10:17:41;;;;;;;4.10;3.70;;;;;;;;;;5076116;28;20489;-85
2023/04/19 10:20:09;;;;;;;5.57;4.33;;;;;;;;;;5094059;28;20449;-86
2023/04/19 10:22:36;;;;;;;8.20;3.97;;;;;;;;;;5075927;28;20388;-86
2023/04/19 10:25:10;;;;;;;4.80;3.07;;;;;;;;;;5094157;28;20509;-85
2023/04/19 10:27:36;;;;;;;5.17;3.33;;;;;;;;;;5094648;28;20377;-85
2023/04/19 10:30:06;;;;;;;3.70;3.23;;;;;;;;;;5080133;28;20509;-84
2023/04/19 10:32:42;;;;;;;5.03;3.83;;;;;;;;;;5098046;28;20403;-84
2023/04/19 10:35:17;;;;;;;3.87;3.43;;;;;;;;;;5080296;28;20406;-85
2023/04/19 10:38:11;;;;;;;7.20;3.60;;;;;;;;;;5097944;28;20435;-85
2023/04/19 10:40:55;;;;;;;3.80;3.50;;;;;;;;;;5094920;28;20759;-85
2023/04/19 10:43:23;;;;;;;4.80;3.23;;;;;;;;;;5079798;28;20414;-85
2023/04/19 10:45:49;;;;;;;4.03;3.13;;;;;;;;;;5063411;28;20418;-85
2023/04/19 10:48:32;;;;;;;7.10;3.60;;;;;;;;;;5080342;28;20425;-85
2023/04/19 10:51:14;;;;;;;4.67;3.67;;;;;;;;;;5097496;28;20548;-86
2023/04/19 10:53:46;;;;;;;4.00;3.40;;;;;;;;;;5079335;28;20410;-86
2023/04/19 10:56:13;;;;;;;4.30;3.90;;;;;;;;;;5079670;28;20457;-85
2023/04/19 10:58:57;;;;;;;7.77;3.50;;;;;;;;;;5097884;28;20402;-85
2023/04/19 11:01:38;;;;;;;4.33;3.27;;;;;;;;;;5097825;28;20397;-85
2023/04/19 11:04:10;;;;;;;3.70;3.10;;;;;;;;;;5080177;28;20414;-86
2023/04/19 11:06:37;;;;;;;4.43;2.90;;;;;;;;;;5079830;28;20472;-86
2023/04/19 11:09:08;;;;;;;4.10;3.57;;;;;;;;;;5079597;28;20773;-84
2023/04/19 11:11:35;;;;;;;5.20;4.00;;;;;;;;;;5080137;28;20854;-86
2023/04/19 11:14:03;;;;;;;6.03;3.70;;;;;;;;;;5079197;28;20803;-84
2023/04/19 11:16:29;;;;;;;5.80;3.40;;;;;;;;;;5097288;28;20445;-84
2023/04/19 11:18:55;;;;;;;4.23;3.50;;;;;;;;;;5079111;28;20505;-84
2023/04/19 11:21:22;;;;;;;6.63;3.80;;;;;;;;;;5079700;28;20407;-84
2023/04/19 11:23:49;;;;;;;3.70;3.30;;;;;;;;;;5079715;28;20449;-84
2023/04/19 11:26:15;;;;;;;4.00;3.07;;;;;;;;;;5097137;28;20407;-84
2023/04/19 11:28:41;;;;;;;3.30;3.00;;;;;;;;;;5079061;28;20450;-84
2023/04/19 11:31:07;;;;;;;5.97;2.80;;;;;;;;;;5079269;28;20402;-84
2023/04/19 11:33:33;;;;;;;4.63;3.17;;;;;;;;;;5078908;28;20776;-85
2023/04/19 11:36:00;;;;;;;3.90;2.83;;;;;;;;;;5078252;28;20421;-85
2023/04/19 11:38:29;;;;;;;2.70;2.47;;;;;;;;;;5096783;28;20406;-86
2023/04/19 11:41:02;;;;;;;3.83;3.50;;;;;;;;;;5078580;28;20412;-85
2023/04/19 11:43:34;;;;;;;5.40;3.20;;;;;;;;;;5078476;28;20898;-86
2023/04/19 11:46:08;;;;;;;3.13;2.80;;;;;;;;;;5097246;28;20373;-86
2023/04/19 11:48:34;;;;;;;3.03;2.63;;;;;;;;;;5078677;28;20412;-87
2023/04/19 11:51:00;;;;;;;4.13;3.53;;;;;;;;;;5096363;28;20443;-84
2023/04/19 11:53:27;;;;;;;4.87;2.77;;;;;;;;;;5078504;28;20410;-85
2023/04/19 11:55:55;;;;;;;2.80;2.50;;;;;;;;;;5096644;28;20421;-85
2023/04/19 11:58:24;;;;;;;3.83;2.80;;;;;;;;;;5078854;28;20751;-86
2023/04/19 12:00:50;;;;;;;3.80;2.90;;;;;;;;;;5078557;28;20404;-85
2023/04/19 12:03:16;;;;;;;2.80;2.60;;;;;;;;;;5096721;28;20481;-85
2023/04/19 12:05:59;;;;;;;5.60;2.43;;;;;;;;;;5084993;28;20376;-85
2023/04/19 12:08:38;;;;;;;3.47;2.50;;;;;;;;;;5079402;28;20414;-84
2023/04/19 12:11:05;;;;;;;2.17;1.97;;;;;;;;;;5079082;28;20944;-85
2023/04/19 12:13:32;;;;;;;2.70;2.20;;;;;;;;;;5079045;28;20461;-85
2023/04/19 12:15:58;;;;;;;3.17;2.30;;;;;;;;;;5096933;28;20448;-83
2023/04/19 12:18:24;;;;;;;3.43;2.20;;;;;;;;;;5078255;28;20389;-83
2023/04/19 12:20:51;;;;;;;3.67;2.30;;;;;;;;;;5077827;28;20411;-83
2023/04/19 12:23:17;;;;;;;2.73;2.40;;;;;;;;;;5077926;28;20398;-84
2023/04/19 12:25:48;;;;;;;3.10;2.67;;;;;;;;;;5096589;28;20405;-84
2023/04/19 12:28:15;;;;;;;2.90;2.50;;;;;;;;;;5096357;28;20398;-84
2023/04/19 12:30:41;;;;;;;5.30;2.50;;;;;;;;;;5078067;28;20385;-86
2023/04/19 12:33:08;;;;;;;5.00;2.40;;;;;;;;;;5078293;28;20437;-84
2023/04/19 12:35:34;;;;;;;2.43;2.23;;;;;;;;;;5077907;28;20483;-81
2023/04/19 12:38:01;;;;;;;3.80;2.20;;;;;;;;;;5077361;28;20475;-83
2023/04/19 12:40:27;;;;;;;4.37;2.70;;;;;;;;;;5077616;28;21021;-89
2023/04/19 12:42:53;;;;;;;4.33;2.47;;;;;;;;;;5095081;28;20883;-80
2023/04/19 12:45:20;;;;;;;3.90;2.70;;;;;;;;;;5060481;28;20414;-81
2023/04/19 12:47:47;;;;;;;5.67;2.47;;;;;;;;;;5076822;28;20389;-81
2023/04/19 12:50:13;;;;;;;2.70;2.50;;;;;;;;;;5094120;28;20933;-80
2023/04/19 12:52:40;;;;;;;6.60;2.80;;;;;;;;;;5076334;28;20385;-82
2023/04/19 12:55:06;;;;;;;3.23;2.93;;;;;;;;;;5076766;28;20399;-80
2023/04/19 12:57:32;;;;;;;4.30;2.60;;;;;;;;;;5060100;28;20428;-81
2023/04/19 12:59:59;;;;;;;3.67;2.70;;;;;;;;;;5076359;28;20418;-80
2023/04/19 13:02:25;;;;;;;3.10;2.80;;;;;;;;;;5094895;28;20398;-81
2023/04/19 13:04:51;;;;;;;3.47;2.30;;;;;;;;;;5076412;28;20393;-82
2023/04/19 13:07:17;;;;;;;2.70;2.50;;;;;;;;;;5075784;28;20479;-81
2023/04/19 13:09:43;;;;;;;4.10;2.60;;;;;;;;;;5056197;28;20510;-81
2023/04/19 13:12:09;;;;;;;3.17;2.10;;;;;;;;;;5074275;28;20870;-81
2023/04/19 13:14:35;;;;;;;4.00;3.07;;;;;;;;;;5056363;28;20393;-84
2023/04/19 13:17:01;;;;;;;5.37;2.53;;;;;;;;;;5055715;28;20822;-82
2023/04/19 13:19:27;;;;;;;4.17;2.53;;;;;;;;;;5056465;28;20403;-81
2023/04/19 13:21:53;;;;;;;2.93;2.73;;;;;;;;;;5056034;28;20738;-81
2023/04/19 13:24:19;;;;;;;2.93;2.13;;;;;;;;;;5056181;28;20887;-84
2023/04/19 13:26:45;;;;;;;4.20;3.00;;;;;;;;;;5039147;28;20423;-81
2023/04/19 13:29:11;;;;;;;6.03;2.83;;;;;;;;;;5073984;28;20403;-81
2023/04/19 13:31:38;;;;;;;5.30;2.30;;;;;;;;;;5056100;28;20399;-84
2023/04/19 13:34:04;;;;;;;2.90;2.40;;;;;;;;;;5073733;28;20665;-81
2023/04/19 13:36:30;;;;;;;4.70;2.73;;;;;;;;;;5056074;28;20460;-81
2023/04/19 13:38:56;;;;;;;3.50;3.17;;;;;;;;;;5055858;28;20404;-81
2023/04/19 13:41:22;;;;;;;6.43;2.73;;;;;;;;;;5073860;28;20401;-81
2023/04/19 13:43:48;;;;;;;3.20;2.10;;;;;;;;;;5055721;28;20414;-84
2023/04/19 13:46:14;;;;;;;4.43;3.10;;;;;;;;;;5056187;28;20408;-84
2023/04/19 13:48:40;;;;;;;4.20;2.37;;;;;;;;;;5056185;28;20409;-87
2023/04/19 13:51:07;;;;;;;3.03;2.53;;;;;;;;;;5055539;28;21002;-82
2023/04/19 13:53:33;;;;;;;4.67;2.77;;;;;;;;;;5055993;28;20451;-82
2023/04/19 13:55:59;;;;;;;2.67;2.43;;;;;;;;;;5055601;28;20469;-81
2023/04/19 13:58:25;;;;;;;3.03;2.60;;;;;;;;;;5039152;28;20418;-83
2023/04/19 14:00:52;;;;;;;3.27;2.70;;;;;;;;;;5055280;28;20900;-82
2023/04/19 14:03:18;;;;;;;4.73;3.10;;;;;;;;;;5054990;28;20443;-82
2023/04/19 14:05:44;;;;;;;7.47;3.27;;;;;;;;;;5055259;28;20415;-82
2023/04/19 14:08:11;;;;;;;3.63;2.57;;;;;;;;;;5073525;28;20403;-82
2023/04/19 14:10:37;;;;;;;3.20;2.87;;;;;;;;;;5055564;28;20426;-82
2023/04/19 14:13:04;;;;;;;4.83;3.10;;;;;;;;;;5072927;28;20415;-81
2023/04/19 14:15:30;;;;;;;3.37;3.00;;;;;;;;;;5039171;28;20434;-84
2023/04/19 14:17:56;;;;;;;3.00;2.60;;;;;;;;;;5038592;28;21071;-82
2023/04/19 14:20:29;;;;;;;2.97;2.07;;;;;;;;;;5035259;28;20441;-81
2023/04/19 14:22:57;;;;;;;3.17;2.50;;;;;;;;;;5053779;28;20404;-83
2023/04/19 14:25:24;;;;;;;3.40;2.13;;;;;;;;;;5053412;28;20423;-79
2023/04/19 14:27:50;;;;;;;4.80;3.10;;;;;;;;;;5070107;28;20447;-78
2023/04/19 14:30:16;;;;;;;3.77;2.27;;;;;;;;;;5055385;28;20407;-80